sensor_id;sensor_type;location;lat;lon;timestamp;P1;P4;P2;P0;N10;N4;N25;N1;N05;TS
71550;SPS30;59367;48.414;9.872;2023-05-27T00:00:52;7.599509239;;7.569346905;;;;;;;
71550;SPS30;59367;48.414;9.872;2023-05-27T00:01:58;7.246863842;;7.246863842;;;;;;;
71550;SPS30;59367;48.414;9.872;2023-05-27T00:03:05;7.272744656;;7.272744656;;;;;;;
71550;SPS30;59367;48.414;9.872;2023-05-27T00:04:11;7.5399189;;7.5399189;;;;;;;
71550;SPS30;59367;48.414;9.872;2023-05-27T00:05:17;7.573030472;;7.573030472;;;;;;;
71550;SPS30;59367;48.414;9.872;2023-05-27T00:06:23;8.053320885;;8.053320885;;;;;;;
71550;SPS30;59367;48.414;9.872;2023-05-27T00:07:30;7.733128548;;7.733128548;;;;;;;
71550;SPS30;59367;48.414;9.872;2023-05-27T00:08:36;7.248880863;;7.248880863;;;;;;;
71550;SPS30;59367;48.414;9.872;2023-05-27T00:09:43;7.475260735;;7.475260735;;;;;;;
71550;SPS30;59367;48.414;9.872;2023-05-27T00:10:48;6.994354248;;6.97773695;;;;;;;
71550;SPS30;59367;48.414;9.872;2023-05-27T00:11:55;6.81084156;;6.772504807;;;;;;;
71550;SPS30;59367;48.414;9.872;2023-05-27T00:13:01;7.563536167;;7.563502312;;;;;;;
71550;SPS30;59367;48.414;9.872;2023-05-27T00:14:07;7.619146347;;7.619146347;;;;;;;
71550;SPS30;59367;48.414;9.872;2023-05-27T00:15:13;6.603461266;;6.603461266;;;;;;;
71550;SPS30;59367;48.414;9.872;2023-05-27T00:16:21;7.159385204;;7.159385204;;;;;;;
71550;SPS30;59367;48.414;9.872;2023-05-27T00:17:27;6.653805256;;6.653805256;;;;;;;
71550;SPS30;59367;48.414;9.872;2023-05-27T00:18:33;6.365571976;;6.365571976;;;;;;;
71550;SPS30;59367;48.414;9.872;2023-05-27T00:19:39;6.392278671;;6.370266914;;;;;;;
71550;SPS30;59367;48.414;9.872;2023-05-27T00:20:46;7.319446564;;7.314967632;;;;;;;
71550;SPS30;59367;48.414;9.872;2023-05-27T00:21:52;7.207309723;;7.159521103;;;;;;;
71550;SPS30;59367;48.414;9.872;2023-05-27T00:22:58;7.158401012;;7.155532837;;;;;;;
71550;SPS30;59367;48.414;9.872;2023-05-27T00:24:04;6.305506706;;6.305506706;;;;;;;
71550;SPS30;59367;48.414;9.872;2023-05-27T00:25:11;7.232844353;;7.232844353;;;;;;;
71550;SPS30;59367;48.414;9.872;2023-05-27T00:26:17;6.194071293;;6.194071293;;;;;;;
71550;SPS30;59367;48.414;9.872;2023-05-27T00:27:23;6.664076805;;6.664076805;;;;;;;
71550;SPS30;59367;48.414;9.872;2023-05-27T00:28:29;6.26783514;;6.26783514;;;;;;;
71550;SPS30;59367;48.414;9.872;2023-05-27T00:29:35;6.466696262;;6.466696262;;;;;;;
71550;SPS30;59367;48.414;9.872;2023-05-27T00:30:42;7.227327824;;7.227327824;;;;;;;
71550;SPS30;59367;48.414;9.872;2023-05-27T00:31:48;7.158317566;;7.158317566;;;;;;;
71550;SPS30;59367;48.414;9.872;2023-05-27T00:32:54;6.334594727;;6.334594727;;;;;;;
71550;SPS30;59367;48.414;9.872;2023-05-27T00:34:01;7.197183132;;7.197183132;;;;;;;
71550;SPS30;59367;48.414;9.872;2023-05-27T00:35:08;6.717233181;;6.717233181;;;;;;;
71550;SPS30;59367;48.414;9.872;2023-05-27T00:36:14;5.889616489;;5.889616489;;;;;;;
71550;SPS30;59367;48.414;9.872;2023-05-27T00:37:21;6.189165115;;6.189165115;;;;;;;
71550;SPS30;59367;48.414;9.872;2023-05-27T00:38:27;6.229184628;;6.229184628;;;;;;;
71550;SPS30;59367;48.414;9.872;2023-05-27T00:39:33;6.572400093;;6.572400093;;;;;;;
71550;SPS30;59367;48.414;9.872;2023-05-27T00:40:39;6.067615986;;6.067615986;;;;;;;
71550;SPS30;59367;48.414;9.872;2023-05-27T00:41:47;6.072755337;;6.072755337;;;;;;;
71550;SPS30;59367;48.414;9.872;2023-05-27T00:42:54;6.252212048;;6.252212048;;;;;;;
71550;SPS30;59367;48.414;9.872;2023-05-27T00:44:00;6.475866795;;6.475866795;;;;;;;
71550;SPS30;59367;48.414;9.872;2023-05-27T00:45:07;6.253340244;;6.253340244;;;;;;;
71550;SPS30;59367;48.414;9.872;2023-05-27T00:46:15;6.223385811;;6.189713478;;;;;;;
71550;SPS30;59367;48.414;9.872;2023-05-27T00:47:22;6.35742712;;6.28597641;;;;;;;
71550;SPS30;59367;48.414;9.872;2023-05-27T00:48:32;5.974012852;;5.938303947;;;;;;;
71550;SPS30;59367;48.414;9.872;2023-05-27T00:49:39;6.520143509;;6.51877594;;;;;;;
71550;SPS30;59367;48.414;9.872;2023-05-27T00:50:45;6.831157207;;6.831157207;;;;;;;
71550;SPS30;59367;48.414;9.872;2023-05-27T00:51:52;5.662781715;;5.662781715;;;;;;;
71550;SPS30;59367;48.414;9.872;2023-05-27T00:52:58;5.508750916;;5.508750916;;;;;;;
71550;SPS30;59367;48.414;9.872;2023-05-27T00:54:05;6.027139187;;6.027139187;;;;;;;
71550;SPS30;59367;48.414;9.872;2023-05-27T00:55:12;6.396939278;;6.364159584;;;;;;;
71550;SPS30;59367;48.414;9.872;2023-05-27T00:56:19;5.757482529;;5.735535145;;;;;;;
71550;SPS30;59367;48.414;9.872;2023-05-27T00:57:25;6.104075909;;6.103993893;;;;;;;
71550;SPS30;59367;48.414;9.872;2023-05-27T00:58:31;5.820095062;;5.820095062;;;;;;;
71550;SPS30;59367;48.414;9.872;2023-05-27T00:59:37;5.965514183;;5.965514183;;;;;;;
71550;SPS30;59367;48.414;9.872;2023-05-27T01:00:44;5.848445415;;5.848445415;;;;;;;
71550;SPS30;59367;48.414;9.872;2023-05-27T01:01:50;6.178468227;;6.178468227;;;;;;;
71550;SPS30;59367;48.414;9.872;2023-05-27T01:02:56;5.794998169;;5.794998169;;;;;;;
71550;SPS30;59367;48.414;9.872;2023-05-27T01:04:03;4.963899136;;4.963899136;;;;;;;
71550;SPS30;59367;48.414;9.872;2023-05-27T01:05:11;5.948100567;;5.948100567;;;;;;;
71550;SPS30;59367;48.414;9.872;2023-05-27T01:06:21;5.199292183;;5.199292183;;;;;;;
71550;SPS30;59367;48.414;9.872;2023-05-27T01:07:34;5.391922951;;5.391922951;;;;;;;
71550;SPS30;59367;48.414;9.872;2023-05-27T01:08:56;6.490640163;;6.490640163;;;;;;;
71550;SPS30;59367;48.414;9.872;2023-05-27T01:10:08;6.238558292;;6.208403111;;;;;;;
71550;SPS30;59367;48.414;9.872;2023-05-27T01:11:19;6.19599247;;6.150169849;;;;;;;
71550;SPS30;59367;48.414;9.872;2023-05-27T01:12:31;5.607038975;;5.606709003;;;;;;;
71550;SPS30;59367;48.414;9.872;2023-05-27T01:13:51;5.614237785;;5.583605289;;;;;;;
71550;SPS30;59367;48.414;9.872;2023-05-27T01:14:59;4.901438236;;4.862685204;;;;;;;
71550;SPS30;59367;48.414;9.872;2023-05-27T01:16:08;5.541779041;;5.541779041;;;;;;;
71550;SPS30;59367;48.414;9.872;2023-05-27T01:17:16;5.595237255;;5.595237255;;;;;;;
71550;SPS30;59367;48.414;9.872;2023-05-27T01:18:24;5.446428776;;5.446428776;;;;;;;
71550;SPS30;59367;48.414;9.872;2023-05-27T01:19:35;5.836716652;;5.836716652;;;;;;;
71550;SPS30;59367;48.414;9.872;2023-05-27T01:20:44;5.874625683;;5.874625683;;;;;;;
71550;SPS30;59367;48.414;9.872;2023-05-27T01:21:54;6.175742626;;6.175742626;;;;;;;
71550;SPS30;59367;48.414;9.872;2023-05-27T01:23:01;5.163215637;;5.163215637;;;;;;;
71550;SPS30;59367;48.414;9.872;2023-05-27T01:24:08;4.688890457;;4.688890457;;;;;;;
71550;SPS30;59367;48.414;9.872;2023-05-27T01:25:14;5.188384056;;5.188384056;;;;;;;
71550;SPS30;59367;48.414;9.872;2023-05-27T01:26:21;5.355213642;;5.355213642;;;;;;;
71550;SPS30;59367;48.414;9.872;2023-05-27T01:27:28;5.855351448;;5.855351448;;;;;;;
71550;SPS30;59367;48.414;9.872;2023-05-27T01:28:35;5.413620949;;5.409976959;;;;;;;
71550;SPS30;59367;48.414;9.872;2023-05-27T01:29:42;5.442654133;;5.434933662;;;;;;;
71550;SPS30;59367;48.414;9.872;2023-05-27T01:30:48;6.358565807;;6.345733166;;;;;;;
71550;SPS30;59367;48.414;9.872;2023-05-27T01:32:00;6.174479485;;6.174479485;;;;;;;
71550;SPS30;59367;48.414;9.872;2023-05-27T01:33:11;5.730032921;;5.730032921;;;;;;;
71550;SPS30;59367;48.414;9.872;2023-05-27T01:34:23;5.480843067;;5.480678082;;;;;;;
71550;SPS30;59367;48.414;9.872;2023-05-27T01:35:36;5.909101009;;5.909101009;;;;;;;
71550;SPS30;59367;48.414;9.872;2023-05-27T01:36:48;5.723882198;;5.723882198;;;;;;;
71550;SPS30;59367;48.414;9.872;2023-05-27T01:37:59;5.996629238;;5.99564743;;;;;;;
71550;SPS30;59367;48.414;9.872;2023-05-27T01:39:09;5.070100784;;5.06365633;;;;;;;
71550;SPS30;59367;48.414;9.872;2023-05-27T01:40:16;5.40879631;;5.40879631;;;;;;;
71550;SPS30;59367;48.414;9.872;2023-05-27T01:41:23;5.123507023;;5.123507023;;;;;;;
71550;SPS30;59367;48.414;9.872;2023-05-27T01:42:30;5.202819347;;5.202819347;;;;;;;
71550;SPS30;59367;48.414;9.872;2023-05-27T01:43:38;5.494611263;;5.494361877;;;;;;;
71550;SPS30;59367;48.414;9.872;2023-05-27T01:44:45;5.121066093;;5.121066093;;;;;;;
71550;SPS30;59367;48.414;9.872;2023-05-27T01:45:52;5.52030468;;5.52030468;;;;;;;
71550;SPS30;59367;48.414;9.872;2023-05-27T01:47:00;5.559884548;;5.559884548;;;;;;;
71550;SPS30;59367;48.414;9.872;2023-05-27T01:48:07;5.018477917;;5.018477917;;;;;;;
71550;SPS30;59367;48.414;9.872;2023-05-27T01:49:13;4.986542225;;4.986542225;;;;;;;
71550;SPS30;59367;48.414;9.872;2023-05-27T01:50:20;5.383793354;;5.383793354;;;;;;;
71550;SPS30;59367;48.414;9.872;2023-05-27T01:51:26;5.519296169;;5.519296169;;;;;;;
71550;SPS30;59367;48.414;9.872;2023-05-27T01:52:32;4.892463207;;4.892463207;;;;;;;
71550;SPS30;59367;48.414;9.872;2023-05-27T01:53:39;5.890514374;;5.890216351;;;;;;;
71550;SPS30;59367;48.414;9.872;2023-05-27T01:54:45;4.809774399;;4.809774399;;;;;;;
71550;SPS30;59367;48.414;9.872;2023-05-27T01:55:51;4.816991329;;4.816991329;;;;;;;
71550;SPS30;59367;48.414;9.872;2023-05-27T01:56:57;6.102756023;;6.102756023;;;;;;;
71550;SPS30;59367;48.414;9.872;2023-05-27T01:58:03;5.239793301;;5.239793301;;;;;;;
71550;SPS30;59367;48.414;9.872;2023-05-27T01:59:10;5.510305405;;5.510305405;;;;;;;
71550;SPS30;59367;48.414;9.872;2023-05-27T02:00:16;5.174710274;;5.174710274;;;;;;;
71550;SPS30;59367;48.414;9.872;2023-05-27T02:01:24;5.12114954;;5.12114954;;;;;;;
71550;SPS30;59367;48.414;9.872;2023-05-27T02:02:30;5.512389183;;5.512389183;;;;;;;
71550;SPS30;59367;48.414;9.872;2023-05-27T02:03:36;5.76695776;;5.759224415;;;;;;;
71550;SPS30;59367;48.414;9.872;2023-05-27T02:04:42;5.852908134;;5.852908134;;;;;;;
71550;SPS30;59367;48.414;9.872;2023-05-27T02:05:49;5.821732044;;5.821732044;;;;;;;
71550;SPS30;59367;48.414;9.872;2023-05-27T02:06:55;5.305772781;;5.305772781;;;;;;;
71550;SPS30;59367;48.414;9.872;2023-05-27T02:08:01;5.68734026;;5.68734026;;;;;;;
71550;SPS30;59367;48.414;9.872;2023-05-27T02:09:07;6.055508137;;6.055508137;;;;;;;
71550;SPS30;59367;48.414;9.872;2023-05-27T02:10:14;6.139431;;6.139431;;;;;;;
71550;SPS30;59367;48.414;9.872;2023-05-27T02:11:20;5.915489674;;5.915489674;;;;;;;
71550;SPS30;59367;48.414;9.872;2023-05-27T02:12:26;6.77396822;;6.77396822;;;;;;;
71550;SPS30;59367;48.414;9.872;2023-05-27T02:13:32;6.561039448;;6.561039448;;;;;;;
71550;SPS30;59367;48.414;9.872;2023-05-27T02:15:42;6.246031761;;6.246031761;;;;;;;
71550;SPS30;59367;48.414;9.872;2023-05-27T02:16:49;6.498301506;;6.498301506;;;;;;;
71550;SPS30;59367;48.414;9.872;2023-05-27T02:17:56;6.786472321;;6.786472321;;;;;;;
71550;SPS30;59367;48.414;9.872;2023-05-27T02:19:03;6.745925903;;6.745925903;;;;;;;
71550;SPS30;59367;48.414;9.872;2023-05-27T02:20:10;7.238549709;;7.238549709;;;;;;;
71550;SPS30;59367;48.414;9.872;2023-05-27T02:21:17;6.464787006;;6.464787006;;;;;;;
71550;SPS30;59367;48.414;9.872;2023-05-27T02:22:24;6.536757469;;6.536757469;;;;;;;
71550;SPS30;59367;48.414;9.872;2023-05-27T02:23:31;7.852707386;;7.852707386;;;;;;;
71550;SPS30;59367;48.414;9.872;2023-05-27T02:24:37;7.381513119;;7.381513119;;;;;;;
71550;SPS30;59367;48.414;9.872;2023-05-27T02:25:44;7.288689613;;7.288689613;;;;;;;
71550;SPS30;59367;48.414;9.872;2023-05-27T02:26:51;6.474520206;;6.474520206;;;;;;;
71550;SPS30;59367;48.414;9.872;2023-05-27T02:27:57;7.623996258;;7.623996258;;;;;;;
71550;SPS30;59367;48.414;9.872;2023-05-27T02:29:04;6.797044754;;6.797044754;;;;;;;
71550;SPS30;59367;48.414;9.872;2023-05-27T02:30:11;7.182469368;;7.182469368;;;;;;;
71550;SPS30;59367;48.414;9.872;2023-05-27T02:31:19;7.114904881;;7.114904881;;;;;;;
71550;SPS30;59367;48.414;9.872;2023-05-27T02:32:26;6.97017765;;6.97017765;;;;;;;
71550;SPS30;59367;48.414;9.872;2023-05-27T02:33:32;7.02099514;;7.02099514;;;;;;;
71550;SPS30;59367;48.414;9.872;2023-05-27T02:34:39;6.728221893;;6.728221893;;;;;;;
71550;SPS30;59367;48.414;9.872;2023-05-27T02:35:45;6.191184521;;6.191184521;;;;;;;
71550;SPS30;59367;48.414;9.872;2023-05-27T02:36:52;7.49192524;;7.49192524;;;;;;;
71550;SPS30;59367;48.414;9.872;2023-05-27T02:37:58;7.610691071;;7.610691071;;;;;;;
71550;SPS30;59367;48.414;9.872;2023-05-27T02:39:05;6.946425438;;6.946425438;;;;;;;
71550;SPS30;59367;48.414;9.872;2023-05-27T02:40:20;6.55343008;;6.55343008;;;;;;;
71550;SPS30;59367;48.414;9.872;2023-05-27T02:41:29;7.373419762;;7.373419762;;;;;;;
71550;SPS30;59367;48.414;9.872;2023-05-27T02:42:36;6.740918636;;6.740918636;;;;;;;
71550;SPS30;59367;48.414;9.872;2023-05-27T02:43:43;6.915163517;;6.915163517;;;;;;;
71550;SPS30;59367;48.414;9.872;2023-05-27T02:44:49;7.592418194;;7.592418194;;;;;;;
71550;SPS30;59367;48.414;9.872;2023-05-27T02:45:56;6.669063091;;6.669063091;;;;;;;
71550;SPS30;59367;48.414;9.872;2023-05-27T02:47:03;6.979952335;;6.979952335;;;;;;;
71550;SPS30;59367;48.414;9.872;2023-05-27T02:48:10;7.418624401;;7.418624401;;;;;;;
71550;SPS30;59367;48.414;9.872;2023-05-27T02:49:17;6.946520329;;6.946520329;;;;;;;
71550;SPS30;59367;48.414;9.872;2023-05-27T02:50:23;6.228095531;;6.228095531;;;;;;;
71550;SPS30;59367;48.414;9.872;2023-05-27T02:51:30;6.161129475;;6.161129475;;;;;;;
71550;SPS30;59367;48.414;9.872;2023-05-27T02:52:37;7.063209534;;7.063209534;;;;;;;
71550;SPS30;59367;48.414;9.872;2023-05-27T02:53:43;7.598952293;;7.598952293;;;;;;;
71550;SPS30;59367;48.414;9.872;2023-05-27T02:54:50;7.253092289;;7.253092289;;;;;;;
71550;SPS30;59367;48.414;9.872;2023-05-27T02:55:56;7.036068916;;7.036068916;;;;;;;
71550;SPS30;59367;48.414;9.872;2023-05-27T02:57:03;7.225390434;;7.225390434;;;;;;;
71550;SPS30;59367;48.414;9.872;2023-05-27T02:58:10;7.312914371;;7.312914371;;;;;;;
71550;SPS30;59367;48.414;9.872;2023-05-27T02:59:16;6.981258392;;6.981258392;;;;;;;
71550;SPS30;59367;48.414;9.872;2023-05-27T03:00:23;8.379927635;;8.379927635;;;;;;;
71550;SPS30;59367;48.414;9.872;2023-05-27T03:01:30;6.239221573;;6.239221573;;;;;;;
71550;SPS30;59367;48.414;9.872;2023-05-27T03:02:36;7.401468277;;7.401468277;;;;;;;
71550;SPS30;59367;48.414;9.872;2023-05-27T03:03:43;6.967941284;;6.967941284;;;;;;;
71550;SPS30;59367;48.414;9.872;2023-05-27T03:04:50;7.185619831;;7.185619831;;;;;;;
71550;SPS30;59367;48.414;9.872;2023-05-27T03:05:56;7.248240948;;7.248240948;;;;;;;
71550;SPS30;59367;48.414;9.872;2023-05-27T03:07:03;7.520975113;;7.520975113;;;;;;;
71550;SPS30;59367;48.414;9.872;2023-05-27T03:08:10;7.903123379;;7.903123379;;;;;;;
71550;SPS30;59367;48.414;9.872;2023-05-27T03:09:16;6.49809885;;6.49809885;;;;;;;
71550;SPS30;59367;48.414;9.872;2023-05-27T03:10:23;6.593037128;;6.593037128;;;;;;;
71550;SPS30;59367;48.414;9.872;2023-05-27T03:11:29;7.805551529;;7.805551529;;;;;;;
71550;SPS30;59367;48.414;9.872;2023-05-27T03:12:36;6.401407242;;6.401407242;;;;;;;
71550;SPS30;59367;48.414;9.872;2023-05-27T03:13:43;6.845438957;;6.845438957;;;;;;;
71550;SPS30;59367;48.414;9.872;2023-05-27T03:14:50;7.168032169;;7.168032169;;;;;;;
71550;SPS30;59367;48.414;9.872;2023-05-27T03:15:57;6.321407795;;6.321407795;;;;;;;
71550;SPS30;59367;48.414;9.872;2023-05-27T03:17:03;6.394497871;;6.394497871;;;;;;;
71550;SPS30;59367;48.414;9.872;2023-05-27T03:18:10;7.1672616;;7.1672616;;;;;;;
71550;SPS30;59367;48.414;9.872;2023-05-27T03:19:17;7.68865633;;7.68865633;;;;;;;
71550;SPS30;59367;48.414;9.872;2023-05-27T03:20:23;7.731978893;;7.731978893;;;;;;;
71550;SPS30;59367;48.414;9.872;2023-05-27T03:21:30;8.31887722;;8.31887722;;;;;;;
71550;SPS30;59367;48.414;9.872;2023-05-27T03:22:37;8.132579803;;8.132579803;;;;;;;
71550;SPS30;59367;48.414;9.872;2023-05-27T03:23:44;9.021054268;;9.021054268;;;;;;;
71550;SPS30;59367;48.414;9.872;2023-05-27T03:24:50;8.827683449;;8.827683449;;;;;;;
71550;SPS30;59367;48.414;9.872;2023-05-27T03:25:56;9.650258064;;9.650258064;;;;;;;
71550;SPS30;59367;48.414;9.872;2023-05-27T03:27:03;9.354996681;;9.354996681;;;;;;;
71550;SPS30;59367;48.414;9.872;2023-05-27T03:28:10;8.23150444;;8.23150444;;;;;;;
71550;SPS30;59367;48.414;9.872;2023-05-27T03:29:17;8.189189911;;8.189189911;;;;;;;
71550;SPS30;59367;48.414;9.872;2023-05-27T03:30:23;8.27235508;;8.27235508;;;;;;;
71550;SPS30;59367;48.414;9.872;2023-05-27T03:31:29;9.013202667;;9.013202667;;;;;;;
71550;SPS30;59367;48.414;9.872;2023-05-27T03:32:36;8.757359505;;8.757359505;;;;;;;
71550;SPS30;59367;48.414;9.872;2023-05-27T03:33:43;9.007594109;;9.007594109;;;;;;;
71550;SPS30;59367;48.414;9.872;2023-05-27T03:34:49;8.627347946;;8.627347946;;;;;;;
71550;SPS30;59367;48.414;9.872;2023-05-27T03:35:56;9.633078575;;9.633078575;;;;;;;
71550;SPS30;59367;48.414;9.872;2023-05-27T03:37:03;8.92859745;;8.92859745;;;;;;;
71550;SPS30;59367;48.414;9.872;2023-05-27T03:38:10;8.454487801;;8.454487801;;;;;;;
71550;SPS30;59367;48.414;9.872;2023-05-27T03:39:16;8.905543327;;8.905543327;;;;;;;
71550;SPS30;59367;48.414;9.872;2023-05-27T03:40:23;7.262972832;;7.262972832;;;;;;;
71550;SPS30;59367;48.414;9.872;2023-05-27T03:41:30;6.934823036;;6.934823036;;;;;;;
71550;SPS30;59367;48.414;9.872;2023-05-27T03:42:37;6.584533691;;6.584533691;;;;;;;
71550;SPS30;59367;48.414;9.872;2023-05-27T03:43:44;7.409039021;;7.409039021;;;;;;;
71550;SPS30;59367;48.414;9.872;2023-05-27T03:44:50;8.295589447;;8.295589447;;;;;;;
71550;SPS30;59367;48.414;9.872;2023-05-27T03:45:57;11.05482483;;11.05482483;;;;;;;
71550;SPS30;59367;48.414;9.872;2023-05-27T03:47:04;10.53443813;;10.53443813;;;;;;;
71550;SPS30;59367;48.414;9.872;2023-05-27T03:48:11;10.24324512;;10.24324512;;;;;;;
71550;SPS30;59367;48.414;9.872;2023-05-27T03:49:18;10.47945213;;10.47945213;;;;;;;
71550;SPS30;59367;48.414;9.872;2023-05-27T03:50:24;11.13848877;;11.13848877;;;;;;;
71550;SPS30;59367;48.414;9.872;2023-05-27T03:51:31;10.84978104;;10.84978104;;;;;;;
71550;SPS30;59367;48.414;9.872;2023-05-27T03:52:38;12.40749073;;12.40749073;;;;;;;
71550;SPS30;59367;48.414;9.872;2023-05-27T03:53:45;10.73355579;;10.73355579;;;;;;;
71550;SPS30;59367;48.414;9.872;2023-05-27T03:54:51;10.29380322;;10.29380322;;;;;;;
71550;SPS30;59367;48.414;9.872;2023-05-27T03:55:58;10.42154503;;10.36730289;;;;;;;
71550;SPS30;59367;48.414;9.872;2023-05-27T03:57:05;9.821388245;;9.821212769;;;;;;;
71550;SPS30;59367;48.414;9.872;2023-05-27T03:58:11;9.572781563;;9.572781563;;;;;;;
71550;SPS30;59367;48.414;9.872;2023-05-27T03:59:18;9.99174118;;9.99174118;;;;;;;
71550;SPS30;59367;48.414;9.872;2023-05-27T04:00:24;10.39140701;;10.39140701;;;;;;;
71550;SPS30;59367;48.414;9.872;2023-05-27T04:01:31;9.210672379;;9.210672379;;;;;;;
71550;SPS30;59367;48.414;9.872;2023-05-27T04:02:38;11.7559967;;11.66401291;;;;;;;
71550;SPS30;59367;48.414;9.872;2023-05-27T04:03:44;8.987472534;;8.987472534;;;;;;;
71550;SPS30;59367;48.414;9.872;2023-05-27T04:04:51;9.114350319;;9.114350319;;;;;;;
71550;SPS30;59367;48.414;9.872;2023-05-27T04:05:58;8.633923531;;8.633923531;;;;;;;
71550;SPS30;59367;48.414;9.872;2023-05-27T04:07:04;9.649876595;;9.649876595;;;;;;;
71550;SPS30;59367;48.414;9.872;2023-05-27T04:08:11;8.655044556;;8.655044556;;;;;;;
71550;SPS30;59367;48.414;9.872;2023-05-27T04:09:18;8.114340782;;8.114340782;;;;;;;
71550;SPS30;59367;48.414;9.872;2023-05-27T04:10:24;8.058122635;;8.058122635;;;;;;;
71550;SPS30;59367;48.414;9.872;2023-05-27T04:11:30;7.678770065;;7.678770065;;;;;;;
71550;SPS30;59367;48.414;9.872;2023-05-27T04:12:38;8.430382729;;8.430382729;;;;;;;
71550;SPS30;59367;48.414;9.872;2023-05-27T04:13:45;7.553382874;;7.553382874;;;;;;;
71550;SPS30;59367;48.414;9.872;2023-05-27T04:14:51;7.407178402;;7.400988102;;;;;;;
71550;SPS30;59367;48.414;9.872;2023-05-27T04:15:58;7.704497814;;7.704483032;;;;;;;
71550;SPS30;59367;48.414;9.872;2023-05-27T04:17:05;6.949024677;;6.949024677;;;;;;;
71550;SPS30;59367;48.414;9.872;2023-05-27T04:18:12;7.1771698;;7.1771698;;;;;;;
71550;SPS30;59367;48.414;9.872;2023-05-27T04:19:18;7.230483532;;7.230483532;;;;;;;
71550;SPS30;59367;48.414;9.872;2023-05-27T04:20:25;6.629017353;;6.629017353;;;;;;;
71550;SPS30;59367;48.414;9.872;2023-05-27T04:21:36;7.384248734;;7.384248734;;;;;;;
71550;SPS30;59367;48.414;9.872;2023-05-27T04:22:43;7.054498672;;7.019081116;;;;;;;
71550;SPS30;59367;48.414;9.872;2023-05-27T04:23:50;7.046386242;;7.046386242;;;;;;;
71550;SPS30;59367;48.414;9.872;2023-05-27T04:24:57;7.309554577;;7.309554577;;;;;;;
71550;SPS30;59367;48.414;9.872;2023-05-27T04:26:03;6.851775646;;6.851775646;;;;;;;
71550;SPS30;59367;48.414;9.872;2023-05-27T04:27:10;6.71186924;;6.71186924;;;;;;;
71550;SPS30;59367;48.414;9.872;2023-05-27T04:28:17;7.611130714;;7.611130714;;;;;;;
71550;SPS30;59367;48.414;9.872;2023-05-27T04:29:24;7.349009991;;7.349009991;;;;;;;
71550;SPS30;59367;48.414;9.872;2023-05-27T04:30:31;6.934348106;;6.934348106;;;;;;;
71550;SPS30;59367;48.414;9.872;2023-05-27T04:31:38;6.940701962;;6.940701962;;;;;;;
71550;SPS30;59367;48.414;9.872;2023-05-27T04:32:45;6.892542839;;6.892542839;;;;;;;
71550;SPS30;59367;48.414;9.872;2023-05-27T04:33:51;6.778092384;;6.778092384;;;;;;;
71550;SPS30;59367;48.414;9.872;2023-05-27T04:34:58;6.584512234;;6.584512234;;;;;;;
71550;SPS30;59367;48.414;9.872;2023-05-27T04:36:05;6.296076298;;6.296076298;;;;;;;
71550;SPS30;59367;48.414;9.872;2023-05-27T04:37:12;6.564750195;;6.564750195;;;;;;;
71550;SPS30;59367;48.414;9.872;2023-05-27T04:38:19;6.791007996;;6.791007996;;;;;;;
71550;SPS30;59367;48.414;9.872;2023-05-27T04:39:26;6.660679817;;6.660679817;;;;;;;
71550;SPS30;59367;48.414;9.872;2023-05-27T04:40:32;6.449514866;;6.449514866;;;;;;;
71550;SPS30;59367;48.414;9.872;2023-05-27T04:41:39;5.539404392;;5.539404392;;;;;;;
71550;SPS30;59367;48.414;9.872;2023-05-27T04:42:46;6.436467171;;6.436467171;;;;;;;
71550;SPS30;59367;48.414;9.872;2023-05-27T04:43:52;5.591022491;;5.591022491;;;;;;;
71550;SPS30;59367;48.414;9.872;2023-05-27T04:44:59;5.858729839;;5.858729839;;;;;;;
71550;SPS30;59367;48.414;9.872;2023-05-27T04:46:05;6.659745216;;6.659745216;;;;;;;
71550;SPS30;59367;48.414;9.872;2023-05-27T04:47:11;6.147511482;;6.147511482;;;;;;;
71550;SPS30;59367;48.414;9.872;2023-05-27T04:48:18;5.979772568;;5.979772568;;;;;;;
71550;SPS30;59367;48.414;9.872;2023-05-27T04:49:25;6.155970097;;6.155970097;;;;;;;
71550;SPS30;59367;48.414;9.872;2023-05-27T04:50:31;5.717474461;;5.717474461;;;;;;;
71550;SPS30;59367;48.414;9.872;2023-05-27T04:51:38;5.836101055;;5.836101055;;;;;;;
71550;SPS30;59367;48.414;9.872;2023-05-27T04:52:45;6.220912457;;6.220912457;;;;;;;
71550;SPS30;59367;48.414;9.872;2023-05-27T04:53:52;5.727151871;;5.727151871;;;;;;;
71550;SPS30;59367;48.414;9.872;2023-05-27T04:54:58;6.22873354;;6.22873354;;;;;;;
71550;SPS30;59367;48.414;9.872;2023-05-27T04:56:06;5.769123077;;5.769123077;;;;;;;
71550;SPS30;59367;48.414;9.872;2023-05-27T04:57:13;6.200527668;;6.200527668;;;;;;;
71550;SPS30;59367;48.414;9.872;2023-05-27T04:58:19;6.099161148;;6.099161148;;;;;;;
71550;SPS30;59367;48.414;9.872;2023-05-27T04:59:26;5.284729004;;5.284729004;;;;;;;
71550;SPS30;59367;48.414;9.872;2023-05-27T05:00:33;6.250061989;;6.250061989;;;;;;;
71550;SPS30;59367;48.414;9.872;2023-05-27T05:01:39;6.481469154;;6.481469154;;;;;;;
71550;SPS30;59367;48.414;9.872;2023-05-27T05:02:46;6.382423401;;6.382423401;;;;;;;
71550;SPS30;59367;48.414;9.872;2023-05-27T05:03:53;6.789134026;;6.789134026;;;;;;;
71550;SPS30;59367;48.414;9.872;2023-05-27T05:05:00;6.941305637;;6.941305637;;;;;;;
71550;SPS30;59367;48.414;9.872;2023-05-27T05:06:08;7.328914165;;7.328914165;;;;;;;
71550;SPS30;59367;48.414;9.872;2023-05-27T05:07:14;6.418823719;;6.418823719;;;;;;;
71550;SPS30;59367;48.414;9.872;2023-05-27T05:08:21;6.165646076;;6.165646076;;;;;;;
71550;SPS30;59367;48.414;9.872;2023-05-27T05:09:28;5.351062298;;5.351062298;;;;;;;
71550;SPS30;59367;48.414;9.872;2023-05-27T05:10:35;5.71355629;;5.71355629;;;;;;;
71550;SPS30;59367;48.414;9.872;2023-05-27T05:11:41;5.121229172;;5.121229172;;;;;;;
71550;SPS30;59367;48.414;9.872;2023-05-27T05:12:48;5.567675591;;5.567664623;;;;;;;
71550;SPS30;59367;48.414;9.872;2023-05-27T05:13:54;6.468369007;;6.467513084;;;;;;;
71550;SPS30;59367;48.414;9.872;2023-05-27T05:15:01;6.920584679;;6.920584679;;;;;;;
71550;SPS30;59367;48.414;9.872;2023-05-27T05:16:09;6.018476009;;6.018476009;;;;;;;
71550;SPS30;59367;48.414;9.872;2023-05-27T05:17:15;6.408625603;;6.408625603;;;;;;;
71550;SPS30;59367;48.414;9.872;2023-05-27T05:18:22;5.708739758;;5.708739758;;;;;;;
71550;SPS30;59367;48.414;9.872;2023-05-27T05:19:28;5.643936634;;5.643936634;;;;;;;
71550;SPS30;59367;48.414;9.872;2023-05-27T05:20:35;5.941744804;;5.941744804;;;;;;;
71550;SPS30;59367;48.414;9.872;2023-05-27T05:21:41;6.822762489;;6.822762489;;;;;;;
71550;SPS30;59367;48.414;9.872;2023-05-27T05:22:48;6.160011768;;6.160011768;;;;;;;